sensor_id;sensor_type;location;lat;lon;timestamp;P1;durP1;ratioP1;P2;durP2;ratioP2
4575;SDS011;2300;51.874;8.430;2023-04-24T00:01:03;1.13;;;0.70;;
4575;SDS011;2300;51.874;8.430;2023-04-24T00:03:32;1.57;;;0.80;;
4575;SDS011;2300;51.874;8.430;2023-04-24T00:05:59;2.20;;;0.67;;
4575;SDS011;2300;51.874;8.430;2023-04-24T00:08:27;1.73;;;1.00;;
4575;SDS011;2300;51.874;8.430;2023-04-24T00:10:53;1.63;;;0.93;;
4575;SDS011;2300;51.874;8.430;2023-04-24T00:13:20;2.10;;;0.90;;
4575;SDS011;2300;51.874;8.430;2023-04-24T00:15:46;2.23;;;1.00;;
4575;SDS011;2300;51.874;8.430;2023-04-24T00:18:12;2.20;;;0.97;;
4575;SDS011;2300;51.874;8.430;2023-04-24T00:20:39;2.03;;;1.20;;
4575;SDS011;2300;51.874;8.430;2023-04-24T00:23:05;2.63;;;1.50;;
4575;SDS011;2300;51.874;8.430;2023-04-24T00:25:33;3.00;;;1.50;;
4575;SDS011;2300;51.874;8.430;2023-04-24T00:28:00;2.20;;;1.40;;
4575;SDS011;2300;51.874;8.430;2023-04-24T00:30:27;2.57;;;1.30;;
4575;SDS011;2300;51.874;8.430;2023-04-24T00:32:53;3.17;;;1.73;;
4575;SDS011;2300;51.874;8.430;2023-04-24T00:35:20;2.60;;;1.50;;
4575;SDS011;2300;51.874;8.430;2023-04-24T00:37:46;2.73;;;1.30;;
4575;SDS011;2300;51.874;8.430;2023-04-24T00:40:13;3.67;;;1.60;;
4575;SDS011;2300;51.874;8.430;2023-04-24T00:42:40;4.17;;;1.63;;
4575;SDS011;2300;51.874;8.430;2023-04-24T00:45:09;1.80;;;1.30;;
4575;SDS011;2300;51.874;8.430;2023-04-24T00:47:36;2.03;;;1.10;;
4575;SDS011;2300;51.874;8.430;2023-04-24T00:50:03;1.53;;;1.00;;
4575;SDS011;2300;51.874;8.430;2023-04-24T00:52:31;2.50;;;1.10;;
4575;SDS011;2300;51.874;8.430;2023-04-24T00:54:58;5.43;;;1.10;;
4575;SDS011;2300;51.874;8.430;2023-04-24T00:57:25;2.07;;;1.00;;
4575;SDS011;2300;51.874;8.430;2023-04-24T00:59:53;2.30;;;0.90;;
4575;SDS011;2300;51.874;8.430;2023-04-24T01:02:20;0.87;;;0.70;;
4575;SDS011;2300;51.874;8.430;2023-04-24T01:04:49;1.20;;;0.93;;
4575;SDS011;2300;51.874;8.430;2023-04-24T01:07:17;3.07;;;0.90;;
4575;SDS011;2300;51.874;8.430;2023-04-24T01:09:46;2.60;;;0.80;;
4575;SDS011;2300;51.874;8.430;2023-04-24T01:12:15;1.73;;;0.70;;
4575;SDS011;2300;51.874;8.430;2023-04-24T01:14:42;1.27;;;0.80;;
4575;SDS011;2300;51.874;8.430;2023-04-24T01:17:10;2.07;;;1.00;;
4575;SDS011;2300;51.874;8.430;2023-04-24T01:19:37;1.37;;;0.90;;
4575;SDS011;2300;51.874;8.430;2023-04-24T01:22:08;2.50;;;0.90;;
4575;SDS011;2300;51.874;8.430;2023-04-24T01:24:36;1.83;;;0.77;;
4575;SDS011;2300;51.874;8.430;2023-04-24T01:27:03;1.03;;;0.90;;
4575;SDS011;2300;51.874;8.430;2023-04-24T01:29:29;1.77;;;0.90;;
4575;SDS011;2300;51.874;8.430;2023-04-24T01:31:55;2.67;;;0.90;;
4575;SDS011;2300;51.874;8.430;2023-04-24T01:34:23;1.50;;;0.80;;
4575;SDS011;2300;51.874;8.430;2023-04-24T01:36:50;1.00;;;0.80;;
4575;SDS011;2300;51.874;8.430;2023-04-24T01:39:17;1.37;;;0.80;;
4575;SDS011;2300;51.874;8.430;2023-04-24T01:41:45;1.53;;;0.87;;
4575;SDS011;2300;51.874;8.430;2023-04-24T01:44:12;3.40;;;0.90;;
4575;SDS011;2300;51.874;8.430;2023-04-24T01:46:38;1.80;;;0.70;;
4575;SDS011;2300;51.874;8.430;2023-04-24T01:49:05;0.80;;;0.80;;
4575;SDS011;2300;51.874;8.430;2023-04-24T01:51:31;1.53;;;0.90;;
4575;SDS011;2300;51.874;8.430;2023-04-24T01:53:58;1.43;;;0.80;;
4575;SDS011;2300;51.874;8.430;2023-04-24T01:56:26;1.93;;;0.70;;
4575;SDS011;2300;51.874;8.430;2023-04-24T01:58:55;1.80;;;1.07;;
4575;SDS011;2300;51.874;8.430;2023-04-24T02:01:23;2.70;;;1.00;;
4575;SDS011;2300;51.874;8.430;2023-04-24T02:03:50;1.93;;;0.90;;
4575;SDS011;2300;51.874;8.430;2023-04-24T02:06:17;1.57;;;0.90;;
4575;SDS011;2300;51.874;8.430;2023-04-24T02:08:43;2.43;;;1.10;;
4575;SDS011;2300;51.874;8.430;2023-04-24T02:11:10;1.17;;;0.83;;
4575;SDS011;2300;51.874;8.430;2023-04-24T02:13:37;3.37;;;0.90;;
4575;SDS011;2300;51.874;8.430;2023-04-24T02:16:04;3.50;;;1.23;;
4575;SDS011;2300;51.874;8.430;2023-04-24T02:18:30;1.83;;;1.10;;
4575;SDS011;2300;51.874;8.430;2023-04-24T02:20:57;1.77;;;1.03;;
4575;SDS011;2300;51.874;8.430;2023-04-24T02:23:23;1.50;;;1.07;;
4575;SDS011;2300;51.874;8.430;2023-04-24T02:25:50;2.00;;;1.00;;
4575;SDS011;2300;51.874;8.430;2023-04-24T02:28:18;1.77;;;1.27;;
4575;SDS011;2300;51.874;8.430;2023-04-24T02:30:46;1.97;;;1.20;;
4575;SDS011;2300;51.874;8.430;2023-04-24T02:33:12;17.80;;;11.63;;
4575;SDS011;2300;51.874;8.430;2023-04-24T02:35:39;3.50;;;1.97;;
4575;SDS011;2300;51.874;8.430;2023-04-24T02:38:05;1.90;;;1.27;;
4575;SDS011;2300;51.874;8.430;2023-04-24T02:40:32;2.83;;;1.37;;
4575;SDS011;2300;51.874;8.430;2023-04-24T02:42:58;2.10;;;1.00;;
4575;SDS011;2300;51.874;8.430;2023-04-24T02:45:24;2.27;;;1.20;;
4575;SDS011;2300;51.874;8.430;2023-04-24T02:47:52;2.50;;;1.00;;
4575;SDS011;2300;51.874;8.430;2023-04-24T02:50:19;2.00;;;1.30;;
4575;SDS011;2300;51.874;8.430;2023-04-24T02:52:45;3.17;;;1.23;;
4575;SDS011;2300;51.874;8.430;2023-04-24T02:55:12;1.87;;;1.00;;
4575;SDS011;2300;51.874;8.430;2023-04-24T02:57:38;2.20;;;1.00;;
4575;SDS011;2300;51.874;8.430;2023-04-24T03:00:05;2.03;;;1.10;;
4575;SDS011;2300;51.874;8.430;2023-04-24T03:02:34;3.17;;;1.10;;
4575;SDS011;2300;51.874;8.430;2023-04-24T03:05:01;2.60;;;1.17;;
4575;SDS011;2300;51.874;8.430;2023-04-24T03:07:28;2.43;;;1.20;;
4575;SDS011;2300;51.874;8.430;2023-04-24T03:09:54;2.70;;;1.40;;
4575;SDS011;2300;51.874;8.430;2023-04-24T03:12:23;5.30;;;1.70;;
4575;SDS011;2300;51.874;8.430;2023-04-24T03:14:49;2.33;;;1.60;;
4575;SDS011;2300;51.874;8.430;2023-04-24T03:17:16;2.10;;;1.60;;
4575;SDS011;2300;51.874;8.430;2023-04-24T03:19:42;2.17;;;1.40;;
4575;SDS011;2300;51.874;8.430;2023-04-24T03:22:10;1.60;;;1.30;;
4575;SDS011;2300;51.874;8.430;2023-04-24T03:24:37;2.23;;;1.30;;
4575;SDS011;2300;51.874;8.430;2023-04-24T03:27:03;2.00;;;1.30;;
4575;SDS011;2300;51.874;8.430;2023-04-24T03:29:30;1.77;;;1.20;;
4575;SDS011;2300;51.874;8.430;2023-04-24T03:31:56;1.87;;;1.37;;
4575;SDS011;2300;51.874;8.430;2023-04-24T03:34:22;1.63;;;1.23;;
4575;SDS011;2300;51.874;8.430;2023-04-24T03:36:49;1.73;;;1.13;;
4575;SDS011;2300;51.874;8.430;2023-04-24T03:39:17;2.63;;;1.30;;
4575;SDS011;2300;51.874;8.430;2023-04-24T03:41:43;2.87;;;1.40;;
4575;SDS011;2300;51.874;8.430;2023-04-24T03:44:10;2.13;;;1.20;;
4575;SDS011;2300;51.874;8.430;2023-04-24T03:46:36;2.27;;;1.10;;
4575;SDS011;2300;51.874;8.430;2023-04-24T03:49:02;1.93;;;1.47;;
4575;SDS011;2300;51.874;8.430;2023-04-24T03:51:29;3.40;;;1.20;;
4575;SDS011;2300;51.874;8.430;2023-04-24T03:53:56;2.40;;;1.30;;
4575;SDS011;2300;51.874;8.430;2023-04-24T03:56:24;2.03;;;1.57;;
4575;SDS011;2300;51.874;8.430;2023-04-24T03:58:50;1.77;;;1.53;;
4575;SDS011;2300;51.874;8.430;2023-04-24T04:01:17;3.57;;;1.80;;
4575;SDS011;2300;51.874;8.430;2023-04-24T04:03:45;2.27;;;1.80;;
4575;SDS011;2300;51.874;8.430;2023-04-24T04:06:12;3.50;;;1.63;;
4575;SDS011;2300;51.874;8.430;2023-04-24T04:08:38;2.23;;;1.50;;
4575;SDS011;2300;51.874;8.430;2023-04-24T04:11:04;2.53;;;1.67;;
4575;SDS011;2300;51.874;8.430;2023-04-24T04:13:32;2.27;;;1.60;;
4575;SDS011;2300;51.874;8.430;2023-04-24T04:16:03;4.33;;;1.87;;
4575;SDS011;2300;51.874;8.430;2023-04-24T04:18:47;3.43;;;1.97;;
4575;SDS011;2300;51.874;8.430;2023-04-24T04:21:14;3.60;;;2.40;;
4575;SDS011;2300;51.874;8.430;2023-04-24T04:23:40;5.63;;;2.67;;
4575;SDS011;2300;51.874;8.430;2023-04-24T04:26:07;3.80;;;2.87;;
4575;SDS011;2300;51.874;8.430;2023-04-24T04:28:35;4.70;;;3.37;;
4575;SDS011;2300;51.874;8.430;2023-04-24T04:31:02;4.40;;;3.27;;
4575;SDS011;2300;51.874;8.430;2023-04-24T04:33:29;5.70;;;3.60;;
4575;SDS011;2300;51.874;8.430;2023-04-24T04:35:58;5.50;;;3.67;;
4575;SDS011;2300;51.874;8.430;2023-04-24T04:38:25;7.33;;;4.20;;
4575;SDS011;2300;51.874;8.430;2023-04-24T04:40:55;6.97;;;4.67;;
4575;SDS011;2300;51.874;8.430;2023-04-24T04:43:22;7.07;;;4.80;;
4575;SDS011;2300;51.874;8.430;2023-04-24T04:45:50;5.43;;;4.67;;
4575;SDS011;2300;51.874;8.430;2023-04-24T04:48:19;7.13;;;5.13;;
4575;SDS011;2300;51.874;8.430;2023-04-24T04:50:46;7.20;;;5.80;;
4575;SDS011;2300;51.874;8.430;2023-04-24T04:53:12;7.57;;;5.57;;
4575;SDS011;2300;51.874;8.430;2023-04-24T04:55:38;7.67;;;5.50;;
4575;SDS011;2300;51.874;8.430;2023-04-24T04:58:05;9.67;;;7.23;;
4575;SDS011;2300;51.874;8.430;2023-04-24T05:00:31;9.97;;;7.87;;
4575;SDS011;2300;51.874;8.430;2023-04-24T05:03:02;12.90;;;10.63;;
4575;SDS011;2300;51.874;8.430;2023-04-24T05:05:28;12.47;;;9.90;;
4575;SDS011;2300;51.874;8.430;2023-04-24T05:07:54;13.37;;;10.50;;
4575;SDS011;2300;51.874;8.430;2023-04-24T05:10:21;15.30;;;11.37;;
4575;SDS011;2300;51.874;8.430;2023-04-24T05:12:47;14.77;;;11.17;;
4575;SDS011;2300;51.874;8.430;2023-04-24T05:15:14;16.57;;;12.43;;
4575;SDS011;2300;51.874;8.430;2023-04-24T05:17:41;15.90;;;12.50;;
4575;SDS011;2300;51.874;8.430;2023-04-24T05:20:08;18.83;;;12.63;;
4575;SDS011;2300;51.874;8.430;2023-04-24T05:22:36;17.43;;;13.37;;
4575;SDS011;2300;51.874;8.430;2023-04-24T05:25:03;21.67;;;14.33;;
4575;SDS011;2300;51.874;8.430;2023-04-24T05:27:30;19.67;;;14.43;;
4575;SDS011;2300;51.874;8.430;2023-04-24T05:29:57;16.90;;;13.83;;
4575;SDS011;2300;51.874;8.430;2023-04-24T05:32:23;19.60;;;14.87;;
4575;SDS011;2300;51.874;8.430;2023-04-24T05:34:50;19.77;;;14.40;;
4575;SDS011;2300;51.874;8.430;2023-04-24T05:37:18;19.33;;;14.70;;
4575;SDS011;2300;51.874;8.430;2023-04-24T05:39:45;20.77;;;15.20;;
4575;SDS011;2300;51.874;8.430;2023-04-24T05:42:11;18.00;;;14.27;;
4575;SDS011;2300;51.874;8.430;2023-04-24T05:44:38;20.50;;;15.60;;
4575;SDS011;2300;51.874;8.430;2023-04-24T05:47:04;22.03;;;15.60;;
4575;SDS011;2300;51.874;8.430;2023-04-24T05:49:31;20.83;;;15.27;;
4575;SDS011;2300;51.874;8.430;2023-04-24T05:51:57;21.87;;;15.33;;
4575;SDS011;2300;51.874;8.430;2023-04-24T05:54:25;22.37;;;15.93;;
4575;SDS011;2300;51.874;8.430;2023-04-24T05:56:51;21.47;;;15.43;;
4575;SDS011;2300;51.874;8.430;2023-04-24T05:59:19;19.77;;;15.00;;
4575;SDS011;2300;51.874;8.430;2023-04-24T06:01:46;19.43;;;15.07;;
4575;SDS011;2300;51.874;8.430;2023-04-24T06:04:12;18.97;;;14.90;;
4575;SDS011;2300;51.874;8.430;2023-04-24T06:06:39;21.73;;;15.80;;
4575;SDS011;2300;51.874;8.430;2023-04-24T06:09:06;20.70;;;15.53;;
4575;SDS011;2300;51.874;8.430;2023-04-24T06:11:34;19.83;;;15.60;;
4575;SDS011;2300;51.874;8.430;2023-04-24T06:14:00;19.47;;;15.20;;
4575;SDS011;2300;51.874;8.430;2023-04-24T06:16:26;20.10;;;14.57;;
4575;SDS011;2300;51.874;8.430;2023-04-24T06:18:53;19.27;;;14.40;;
4575;SDS011;2300;51.874;8.430;2023-04-24T06:21:20;17.60;;;15.17;;
4575;SDS011;2300;51.874;8.430;2023-04-24T06:23:46;17.70;;;14.17;;
4575;SDS011;2300;51.874;8.430;2023-04-24T06:26:12;18.93;;;14.23;;
4575;SDS011;2300;51.874;8.430;2023-04-24T06:28:40;18.23;;;14.33;;
4575;SDS011;2300;51.874;8.430;2023-04-24T06:31:07;19.90;;;15.60;;
4575;SDS011;2300;51.874;8.430;2023-04-24T06:33:33;20.03;;;15.43;;
4575;SDS011;2300;51.874;8.430;2023-04-24T06:36:00;19.77;;;15.00;;
4575;SDS011;2300;51.874;8.430;2023-04-24T06:38:26;19.80;;;14.67;;
4575;SDS011;2300;51.874;8.430;2023-04-24T06:40:54;18.47;;;14.17;;
4575;SDS011;2300;51.874;8.430;2023-04-24T06:43:21;18.57;;;14.43;;
4575;SDS011;2300;51.874;8.430;2023-04-24T06:45:48;18.50;;;14.50;;
4575;SDS011;2300;51.874;8.430;2023-04-24T06:48:15;20.73;;;15.10;;
4575;SDS011;2300;51.874;8.430;2023-04-24T06:50:41;20.63;;;14.47;;
4575;SDS011;2300;51.874;8.430;2023-04-24T06:53:08;18.10;;;14.63;;
4575;SDS011;2300;51.874;8.430;2023-04-24T06:55:36;20.87;;;14.63;;
4575;SDS011;2300;51.874;8.430;2023-04-24T06:58:02;18.87;;;14.47;;
4575;SDS011;2300;51.874;8.430;2023-04-24T07:00:29;19.90;;;14.30;;
4575;SDS011;2300;51.874;8.430;2023-04-24T07:02:57;16.80;;;13.60;;
4575;SDS011;2300;51.874;8.430;2023-04-24T07:05:23;19.83;;;14.60;;
4575;SDS011;2300;51.874;8.430;2023-04-24T07:07:50;19.20;;;12.97;;
4575;SDS011;2300;51.874;8.430;2023-04-24T07:10:17;16.13;;;11.50;;
4575;SDS011;2300;51.874;8.430;2023-04-24T07:12:43;12.23;;;10.13;;
4575;SDS011;2300;51.874;8.430;2023-04-24T07:15:10;13.37;;;9.93;;
4575;SDS011;2300;51.874;8.430;2023-04-24T07:17:36;16.43;;;10.87;;
4575;SDS011;2300;51.874;8.430;2023-04-24T07:20:09;12.53;;;10.80;;
4575;SDS011;2300;51.874;8.430;2023-04-24T07:22:37;14.57;;;10.40;;
4575;SDS011;2300;51.874;8.430;2023-04-24T07:25:03;15.80;;;11.27;;
4575;SDS011;2300;51.874;8.430;2023-04-24T07:27:30;10.87;;;9.43;;
4575;SDS011;2300;51.874;8.430;2023-04-24T07:29:57;13.80;;;10.43;;
4575;SDS011;2300;51.874;8.430;2023-04-24T07:32:23;13.90;;;9.80;;
4575;SDS011;2300;51.874;8.430;2023-04-24T07:34:50;12.47;;;9.67;;
4575;SDS011;2300;51.874;8.430;2023-04-24T07:37:18;11.37;;;9.03;;
4575;SDS011;2300;51.874;8.430;2023-04-24T07:39:45;12.00;;;9.03;;
4575;SDS011;2300;51.874;8.430;2023-04-24T07:42:11;12.67;;;9.23;;
4575;SDS011;2300;51.874;8.430;2023-04-24T07:44:38;10.40;;;8.77;;
4575;SDS011;2300;51.874;8.430;2023-04-24T07:47:04;10.17;;;8.80;;
4575;SDS011;2300;51.874;8.430;2023-04-24T07:49:32;9.40;;;8.37;;
4575;SDS011;2300;51.874;8.430;2023-04-24T07:51:59;9.83;;;7.60;;
4575;SDS011;2300;51.874;8.430;2023-04-24T07:54:28;9.60;;;8.00;;
4575;SDS011;2300;51.874;8.430;2023-04-24T07:56:55;10.27;;;7.80;;
4575;SDS011;2300;51.874;8.430;2023-04-24T07:59:21;8.17;;;7.03;;
4575;SDS011;2300;51.874;8.430;2023-04-24T08:01:48;10.07;;;7.30;;
4575;SDS011;2300;51.874;8.430;2023-04-24T08:04:14;9.20;;;6.37;;
4575;SDS011;2300;51.874;8.430;2023-04-24T08:06:42;7.37;;;5.17;;
4575;SDS011;2300;51.874;8.430;2023-04-24T08:09:09;6.73;;;4.77;;
4575;SDS011;2300;51.874;8.430;2023-04-24T08:11:37;7.63;;;4.60;;
4575;SDS011;2300;51.874;8.430;2023-04-24T08:14:04;5.30;;;3.77;;
4575;SDS011;2300;51.874;8.430;2023-04-24T08:16:32;6.27;;;4.17;;
4575;SDS011;2300;51.874;8.430;2023-04-24T08:18:58;8.27;;;4.30;;
4575;SDS011;2300;51.874;8.430;2023-04-24T08:21:25;5.03;;;4.23;;
4575;SDS011;2300;51.874;8.430;2023-04-24T08:23:52;5.57;;;4.53;;
4575;SDS011;2300;51.874;8.430;2023-04-24T08:26:18;8.60;;;4.80;;
4575;SDS011;2300;51.874;8.430;2023-04-24T08:28:46;7.17;;;4.37;;
4575;SDS011;2300;51.874;8.430;2023-04-24T08:31:13;6.57;;;3.80;;
4575;SDS011;2300;51.874;8.430;2023-04-24T08:33:39;4.70;;;3.80;;
4575;SDS011;2300;51.874;8.430;2023-04-24T08:36:06;5.33;;;3.70;;
4575;SDS011;2300;51.874;8.430;2023-04-24T08:38:33;5.30;;;3.80;;
4575;SDS011;2300;51.874;8.430;2023-04-24T08:41:00;4.77;;;3.97;;
4575;SDS011;2300;51.874;8.430;2023-04-24T08:43:27;5.70;;;3.90;;
4575;SDS011;2300;51.874;8.430;2023-04-24T08:45:56;7.97;;;3.90;;
4575;SDS011;2300;51.874;8.430;2023-04-24T08:48:24;24.10;;;8.33;;
4575;SDS011;2300;51.874;8.430;2023-04-24T08:50:51;7.50;;;3.73;;
4575;SDS011;2300;51.874;8.430;2023-04-24T08:53:18;5.50;;;3.70;;
4575;SDS011;2300;51.874;8.430;2023-04-24T08:55:46;5.57;;;4.10;;
4575;SDS011;2300;51.874;8.430;2023-04-24T08:58:14;5.53;;;4.47;;
4575;SDS011;2300;51.874;8.430;2023-04-24T09:00:42;5.70;;;4.40;;
4575;SDS011;2300;51.874;8.430;2023-04-24T09:03:13;5.10;;;3.80;;
4575;SDS011;2300;51.874;8.430;2023-04-24T09:05:41;5.77;;;4.00;;
4575;SDS011;2300;51.874;8.430;2023-04-24T09:08:10;5.10;;;4.10;;
4575;SDS011;2300;51.874;8.430;2023-04-24T09:10:39;5.60;;;3.73;;
4575;SDS011;2300;51.874;8.430;2023-04-24T09:13:05;4.60;;;3.53;;
4575;SDS011;2300;51.874;8.430;2023-04-24T09:15:34;5.00;;;3.50;;
4575;SDS011;2300;51.874;8.430;2023-04-24T09:18:01;6.63;;;3.17;;
4575;SDS011;2300;51.874;8.430;2023-04-24T09:20:29;6.27;;;3.20;;
4575;SDS011;2300;51.874;8.430;2023-04-24T09:22:56;5.80;;;3.20;;
4575;SDS011;2300;51.874;8.430;2023-04-24T09:25:23;4.87;;;3.10;;
4575;SDS011;2300;51.874;8.430;2023-04-24T09:27:58;4.57;;;2.90;;
4575;SDS011;2300;51.874;8.430;2023-04-24T09:30:27;3.00;;;2.40;;
4575;SDS011;2300;51.874;8.430;2023-04-24T09:35:41;3.50;;;2.40;;
4575;SDS011;2300;51.874;8.430;2023-04-24T09:38:09;3.53;;;2.40;;
4575;SDS011;2300;51.874;8.430;2023-04-24T09:40:35;2.83;;;1.90;;
4575;SDS011;2300;51.874;8.430;2023-04-24T09:43:02;3.13;;;1.70;;
4575;SDS011;2300;51.874;8.430;2023-04-24T09:45:31;2.43;;;1.70;;
4575;SDS011;2300;51.874;8.430;2023-04-24T09:48:01;1.87;;;1.60;;
4575;SDS011;2300;51.874;8.430;2023-04-24T09:50:29;3.30;;;1.50;;
4575;SDS011;2300;51.874;8.430;2023-04-24T09:52:58;2.67;;;1.20;;
4575;SDS011;2300;51.874;8.430;2023-04-24T09:55:27;1.20;;;1.10;;
4575;SDS011;2300;51.874;8.430;2023-04-24T09:57:54;1.27;;;0.90;;
4575;SDS011;2300;51.874;8.430;2023-04-24T10:00:22;1.53;;;1.00;;
4575;SDS011;2300;51.874;8.430;2023-04-24T10:02:50;0.50;;;0.50;;
4575;SDS011;2300;51.874;8.430;2023-04-24T10:05:18;0.90;;;0.70;;
4575;SDS011;2300;51.874;8.430;2023-04-24T10:07:44;2.83;;;0.80;;
4575;SDS011;2300;51.874;8.430;2023-04-24T10:10:12;1.27;;;1.10;;
4575;SDS011;2300;51.874;8.430;2023-04-24T10:12:39;2.07;;;1.00;;
4575;SDS011;2300;51.874;8.430;2023-04-24T10:15:07;1.10;;;0.90;;
4575;SDS011;2300;51.874;8.430;2023-04-24T10:17:37;1.20;;;0.90;;
4575;SDS011;2300;51.874;8.430;2023-04-24T10:20:04;1.80;;;1.10;;
4575;SDS011;2300;51.874;8.430;2023-04-24T10:22:32;1.40;;;1.07;;
4575;SDS011;2300;51.874;8.430;2023-04-24T10:24:59;2.47;;;1.10;;
4575;SDS011;2300;51.874;8.430;2023-04-24T10:27:27;3.50;;;1.27;;
4575;SDS011;2300;51.874;8.430;2023-04-24T10:29:56;1.23;;;0.90;;
4575;SDS011;2300;51.874;8.430;2023-04-24T10:32:22;1.30;;;0.90;;
4575;SDS011;2300;51.874;8.430;2023-04-24T10:34:49;1.30;;;0.87;;
4575;SDS011;2300;51.874;8.430;2023-04-24T10:37:16;4.17;;;0.80;;
4575;SDS011;2300;51.874;8.430;2023-04-24T10:39:42;1.80;;;1.30;;
4575;SDS011;2300;51.874;8.430;2023-04-24T10:42:16;1.10;;;1.00;;
4575;SDS011;2300;51.874;8.430;2023-04-24T10:44:44;3.73;;;1.13;;
4575;SDS011;2300;51.874;8.430;2023-04-24T10:47:14;2.50;;;0.97;;
4575;SDS011;2300;51.874;8.430;2023-04-24T10:49:40;1.67;;;1.03;;
4575;SDS011;2300;51.874;8.430;2023-04-24T10:52:08;1.50;;;1.10;;
4575;SDS011;2300;51.874;8.430;2023-04-24T10:54:35;1.73;;;1.10;;
4575;SDS011;2300;51.874;8.430;2023-04-24T11:02:48;1.47;;;1.20;;
4575;SDS011;2300;51.874;8.430;2023-04-24T11:05:18;1.90;;;1.43;;
4575;SDS011;2300;51.874;8.430;2023-04-24T11:10:38;2.30;;;1.80;;
4575;SDS011;2300;51.874;8.430;2023-04-24T11:13:06;2.47;;;2.00;;
4575;SDS011;2300;51.874;8.430;2023-04-24T11:15:32;2.27;;;1.90;;
4575;SDS011;2300;51.874;8.430;2023-04-24T11:18:00;2.60;;;2.20;;
4575;SDS011;2300;51.874;8.430;2023-04-24T11:20:27;3.17;;;2.53;;
4575;SDS011;2300;51.874;8.430;2023-04-24T11:22:54;3.40;;;3.10;;
4575;SDS011;2300;51.874;8.430;2023-04-24T11:25:22;4.77;;;3.33;;
4575;SDS011;2300;51.874;8.430;2023-04-24T11:27:49;6.23;;;3.47;;
4575;SDS011;2300;51.874;8.430;2023-04-24T11:30:17;5.00;;;3.77;;
4575;SDS011;2300;51.874;8.430;2023-04-24T11:32:47;5.00;;;4.33;;
4575;SDS011;2300;51.874;8.430;2023-04-24T11:35:16;4.30;;;3.80;;
4575;SDS011;2300;51.874;8.430;2023-04-24T11:37:45;5.03;;;4.07;;
4575;SDS011;2300;51.874;8.430;2023-04-24T11:40:14;5.20;;;3.63;;
4575;SDS011;2300;51.874;8.430;2023-04-24T11:42:44;4.67;;;3.90;;
4575;SDS011;2300;51.874;8.430;2023-04-24T11:45:12;4.73;;;3.83;;
4575;SDS011;2300;51.874;8.430;2023-04-24T11:47:40;5.03;;;3.37;;
4575;SDS011;2300;51.874;8.430;2023-04-24T11:50:08;4.90;;;3.50;;
4575;SDS011;2300;51.874;8.430;2023-04-24T11:52:38;4.23;;;3.00;;
4575;SDS011;2300;51.874;8.430;2023-04-24T11:55:07;4.33;;;3.10;;
4575;SDS011;2300;51.874;8.430;2023-04-24T11:57:34;6.73;;;3.90;;
4575;SDS011;2300;51.874;8.430;2023-04-24T12:00:01;6.80;;;4.20;;
4575;SDS011;2300;51.874;8.430;2023-04-24T12:02:30;11.07;;;7.30;;
4575;SDS011;2300;51.874;8.430;2023-04-24T12:04:56;9.23;;;7.07;;
4575;SDS011;2300;51.874;8.430;2023-04-24T12:07:24;9.50;;;6.90;;
4575;SDS011;2300;51.874;8.430;2023-04-24T12:09:56;9.03;;;5.27;;
4575;SDS011;2300;51.874;8.430;2023-04-24T12:12:26;8.67;;;4.70;;
4575;SDS011;2300;51.874;8.430;2023-04-24T12:17:40;7.67;;;4.77;;
4575;SDS011;2300;51.874;8.430;2023-04-24T12:20:08;7.50;;;4.17;;
4575;SDS011;2300;51.874;8.430;2023-04-24T12:22:44;7.43;;;4.17;;
4575;SDS011;2300;51.874;8.430;2023-04-24T12:25:14;10.10;;;4.50;;
4575;SDS011;2300;51.874;8.430;2023-04-24T12:27:41;5.73;;;4.07;;
4575;SDS011;2300;51.874;8.430;2023-04-24T12:30:10;7.77;;;4.87;;
4575;SDS011;2300;51.874;8.430;2023-04-24T12:32:42;9.57;;;5.00;;
4575;SDS011;2300;51.874;8.430;2023-04-24T12:35:09;7.67;;;4.83;;
4575;SDS011;2300;51.874;8.430;2023-04-24T12:37:36;8.20;;;5.73;;
4575;SDS011;2300;51.874;8.430;2023-04-24T12:40:05;9.73;;;7.00;;
4575;SDS011;2300;51.874;8.430;2023-04-24T12:42:34;11.27;;;6.03;;
4575;SDS011;2300;51.874;8.430;2023-04-24T12:45:02;9.53;;;6.17;;
4575;SDS011;2300;51.874;8.430;2023-04-24T12:47:30;8.97;;;6.33;;
4575;SDS011;2300;51.874;8.430;2023-04-24T12:49:58;11.13;;;7.20;;
4575;SDS011;2300;51.874;8.430;2023-04-24T12:52:25;10.97;;;7.10;;
4575;SDS011;2300;51.874;8.430;2023-04-24T12:54:54;10.63;;;6.73;;
4575;SDS011;2300;51.874;8.430;2023-04-24T12:57:22;13.43;;;7.90;;
4575;SDS011;2300;51.874;8.430;2023-04-24T12:59:51;14.50;;;8.17;;
4575;SDS011;2300;51.874;8.430;2023-04-24T13:02:20;14.97;;;9.03;;
4575;SDS011;2300;51.874;8.430;2023-04-24T13:04:47;16.77;;;8.90;;
4575;SDS011;2300;51.874;8.430;2023-04-24T13:07:14;19.67;;;9.30;;
4575;SDS011;2300;51.874;8.430;2023-04-24T13:09:41;15.33;;;8.93;;
4575;SDS011;2300;51.874;8.430;2023-04-24T13:12:09;22.23;;;9.57;;
4575;SDS011;2300;51.874;8.430;2023-04-24T13:14:36;15.77;;;9.33;;
4575;SDS011;2300;51.874;8.430;2023-04-24T13:17:04;17.27;;;10.50;;
4575;SDS011;2300;51.874;8.430;2023-04-24T13:19:34;20.60;;;10.33;;
4575;SDS011;2300;51.874;8.430;2023-04-24T13:22:02;19.67;;;9.93;;
4575;SDS011;2300;51.874;8.430;2023-04-24T13:24:29;21.90;;;9.50;;
4575;SDS011;2300;51.874;8.430;2023-04-24T13:26:56;19.53;;;10.00;;
4575;SDS011;2300;51.874;8.430;2023-04-24T13:29:23;15.23;;;8.80;;
4575;SDS011;2300;51.874;8.430;2023-04-24T13:31:49;24.27;;;11.17;;
4575;SDS011;2300;51.874;8.430;2023-04-24T13:34:18;18.03;;;9.53;;
4575;SDS011;2300;51.874;8.430;2023-04-24T13:36:44;21.70;;;10.13;;
4575;SDS011;2300;51.874;8.430;2023-04-24T13:39:12;19.67;;;10.03;;
4575;SDS011;2300;51.874;8.430;2023-04-24T13:41:38;19.57;;;10.10;;
4575;SDS011;2300;51.874;8.430;2023-04-24T13:44:05;20.10;;;10.07;;
4575;SDS011;2300;51.874;8.430;2023-04-24T13:46:32;19.07;;;9.40;;
4575;SDS011;2300;51.874;8.430;2023-04-24T13:48:58;16.43;;;9.13;;
4575;SDS011;2300;51.874;8.430;2023-04-24T13:51:26;21.50;;;9.73;;
4575;SDS011;2300;51.874;8.430;2023-04-24T13:53:53;18.57;;;10.83;;
4575;SDS011;2300;51.874;8.430;2023-04-24T13:56:20;18.23;;;9.70;;
4575;SDS011;2300;51.874;8.430;2023-04-24T13:58:47;22.40;;;9.30;;
4575;SDS011;2300;51.874;8.430;2023-04-24T14:01:13;20.50;;;9.57;;
4575;SDS011;2300;51.874;8.430;2023-04-24T14:03:41;18.93;;;9.53;;
4575;SDS011;2300;51.874;8.430;2023-04-24T14:06:08;20.90;;;9.73;;
4575;SDS011;2300;51.874;8.430;2023-04-24T14:08:36;17.13;;;9.50;;
4575;SDS011;2300;51.874;8.430;2023-04-24T14:11:03;18.30;;;7.50;;
4575;SDS011;2300;51.874;8.430;2023-04-24T14:13:30;17.40;;;7.77;;
4575;SDS011;2300;51.874;8.430;2023-04-24T14:15:56;16.57;;;7.70;;
4575;SDS011;2300;51.874;8.430;2023-04-24T14:18:23;15.50;;;7.07;;
4575;SDS011;2300;51.874;8.430;2023-04-24T14:20:50;14.57;;;6.37;;
4575;SDS011;2300;51.874;8.430;2023-04-24T14:23:16;14.53;;;6.47;;
4575;SDS011;2300;51.874;8.430;2023-04-24T14:25:44;13.37;;;6.10;;
4575;SDS011;2300;51.874;8.430;2023-04-24T14:28:10;14.83;;;6.23;;
4575;SDS011;2300;51.874;8.430;2023-04-24T14:30:37;12.13;;;6.43;;
4575;SDS011;2300;51.874;8.430;2023-04-24T14:33:05;9.77;;;5.50;;
4575;SDS011;2300;51.874;8.430;2023-04-24T14:35:32;12.70;;;5.93;;
4575;SDS011;2300;51.874;8.430;2023-04-24T14:38:00;11.67;;;5.00;;
4575;SDS011;2300;51.874;8.430;2023-04-24T14:40:28;12.80;;;4.60;;
4575;SDS011;2300;51.874;8.430;2023-04-24T14:42:56;7.53;;;4.17;;
4575;SDS011;2300;51.874;8.430;2023-04-24T14:45:23;7.93;;;4.43;;
4575;SDS011;2300;51.874;8.430;2023-04-24T14:47:49;8.63;;;4.07;;
4575;SDS011;2300;51.874;8.430;2023-04-24T14:50:16;8.70;;;3.30;;
4575;SDS011;2300;51.874;8.430;2023-04-24T14:52:42;9.73;;;4.60;;
4575;SDS011;2300;51.874;8.430;2023-04-24T14:55:09;9.70;;;4.20;;
4575;SDS011;2300;51.874;8.430;2023-04-24T14:57:36;5.93;;;3.80;;
4575;SDS011;2300;51.874;8.430;2023-04-24T15:00:04;6.70;;;4.20;;
4575;SDS011;2300;51.874;8.430;2023-04-24T15:02:33;8.33;;;4.33;;
4575;SDS011;2300;51.874;8.430;2023-04-24T15:05:02;8.10;;;3.67;;
4575;SDS011;2300;51.874;8.430;2023-04-24T15:07:29;6.83;;;3.53;;
4575;SDS011;2300;51.874;8.430;2023-04-24T15:09:56;7.40;;;3.30;;
4575;SDS011;2300;51.874;8.430;2023-04-24T15:12:22;6.97;;;3.00;;
4575;SDS011;2300;51.874;8.430;2023-04-24T15:14:49;8.97;;;3.47;;
4575;SDS011;2300;51.874;8.430;2023-04-24T15:17:16;9.93;;;3.00;;
4575;SDS011;2300;51.874;8.430;2023-04-24T15:19:43;10.93;;;2.80;;
4575;SDS011;2300;51.874;8.430;2023-04-24T15:22:09;6.53;;;2.70;;